createdAt,value
2019-05-03T00:00:07.484Z,10.93
2019-05-03T00:01:07.993Z,10.92
2019-05-03T00:02:08.418Z,10.91
2019-05-03T00:03:08.878Z,10.90
2019-05-03T00:04:09.410Z,10.88
2019-05-03T00:05:09.836Z,10.87
2019-05-03T00:06:12.018Z,10.85
2019-05-03T00:07:09.565Z,10.84
2019-05-03T00:08:12.645Z,10.83
2019-05-03T00:09:11.962Z,10.82
2019-05-03T00:10:12.741Z,10.80
2019-05-03T00:11:12.589Z,10.79
2019-05-03T00:12:12.660Z,10.78
2019-05-03T00:13:12.594Z,10.76
2019-05-03T00:14:12.518Z,10.75
2019-05-03T00:15:13.177Z,10.73
2019-05-03T00:16:14.820Z,10.71
2019-05-03T00:17:15.163Z,10.70
2019-05-03T00:18:15.660Z,10.69
2019-05-03T00:19:16.060Z,10.67
2019-05-03T00:20:17.005Z,10.66
2019-05-03T00:20:28.528Z,10.45
2019-05-03T00:21:30.230Z,10.45
2019-05-03T00:22:32.344Z,10.45
2019-05-03T00:23:32.252Z,10.45
2019-05-03T00:24:32.088Z,10.44
2019-05-03T00:25:32.608Z,10.43
2019-05-03T00:26:31.805Z,10.43
2019-05-03T00:27:32.268Z,10.42
2019-05-03T00:28:32.238Z,10.41
2019-05-03T00:29:32.753Z,10.40
2019-05-03T00:30:34.181Z,10.39
2019-05-03T00:31:34.771Z,10.38
2019-05-03T00:32:35.019Z,10.37
2019-05-03T00:33:35.504Z,10.36
2019-05-03T00:34:36.035Z,10.35
2019-05-03T00:35:36.528Z,10.34
2019-05-03T00:36:37.006Z,10.34
2019-05-03T00:37:37.564Z,10.33
2019-05-03T00:38:37.971Z,10.33
2019-05-03T00:39:38.440Z,10.32
2019-05-03T00:40:38.936Z,10.31
2019-05-03T00:41:39.094Z,10.31
2019-05-03T00:42:39.567Z,10.31
2019-05-03T00:43:38.959Z,10.30
2019-05-03T00:44:42.194Z,10.30
2019-05-03T00:45:42.124Z,10.30
2019-05-03T00:46:42.139Z,10.28
2019-05-03T00:47:42.130Z,10.27
2019-05-03T00:48:43.026Z,10.26
2019-05-03T00:49:42.611Z,10.25
2019-05-03T00:50:42.639Z,10.24
2019-05-03T00:51:43.119Z,10.23
2019-05-03T00:52:44.550Z,10.22
2019-05-03T00:53:45.241Z,10.21
2019-05-03T00:54:45.678Z,10.21
2019-05-03T00:55:46.173Z,10.20
2019-05-03T00:56:46.539Z,10.19
2019-05-03T00:57:47.016Z,10.18
2019-05-03T00:58:47.427Z,10.18
2019-05-03T00:59:47.851Z,10.17
2019-05-03T01:00:48.152Z,10.16
2019-05-03T01:01:48.760Z,10.15
2019-05-03T01:02:48.093Z,10.14
2019-05-03T01:03:49.533Z,10.13
2019-05-03T01:04:51.464Z,10.12
2019-05-03T01:05:49.536Z,10.12
2019-05-03T01:06:52.719Z,10.11
2019-05-03T01:07:52.598Z,10.11
2019-05-03T01:08:52.238Z,10.10
2019-05-03T01:09:51.911Z,10.09
2019-05-03T01:10:52.162Z,10.08
2019-05-03T01:11:53.694Z,10.07
2019-05-03T01:12:54.112Z,10.06
2019-05-03T01:13:54.498Z,10.06
2019-05-03T01:14:55.118Z,10.05
2019-05-03T01:15:55.882Z,10.03
2019-05-03T01:16:56.326Z,10.02
2019-05-03T01:17:56.983Z,10.01
2019-05-03T01:18:57.340Z,10.00
2019-05-03T01:19:57.958Z,9.99
2019-05-03T01:20:09.467Z,9.87
2019-05-03T01:21:11.721Z,9.87
2019-05-03T01:22:11.888Z,9.87
2019-05-03T01:23:12.430Z,9.87
2019-05-03T01:24:12.355Z,9.88
2019-05-03T01:25:12.898Z,9.88
2019-05-03T01:26:14.321Z,9.88
2019-05-03T01:27:14.780Z,9.89
2019-05-03T01:28:15.202Z,9.89
2019-05-03T01:29:15.591Z,9.89
2019-05-03T01:30:15.689Z,9.89
2019-05-03T01:31:16.518Z,9.90
2019-05-03T01:32:17.165Z,9.90
2019-05-03T01:33:17.191Z,9.90
2019-05-03T01:34:17.759Z,9.90
2019-05-03T01:35:18.430Z,9.89
2019-05-03T01:36:18.816Z,9.88
2019-05-03T01:37:19.245Z,9.87
2019-05-03T01:38:19.885Z,9.86
2019-05-03T01:39:22.086Z,9.86
2019-05-03T01:40:19.724Z,9.85
2019-05-03T01:41:21.683Z,9.84
2019-05-03T01:42:22.486Z,9.84
2019-05-03T01:43:22.199Z,9.84
2019-05-03T01:44:21.989Z,9.83
2019-05-03T01:45:22.811Z,9.83
2019-05-03T01:46:22.921Z,9.82
2019-05-03T01:47:22.796Z,9.82
2019-05-03T01:48:24.303Z,9.82
2019-05-03T01:49:24.783Z,9.83
2019-05-03T01:50:25.263Z,9.83
2019-05-03T01:51:25.948Z,9.83
2019-05-03T01:52:26.350Z,9.83
2019-05-03T01:53:26.805Z,9.83
2019-05-03T01:54:27.321Z,9.82
2019-05-03T01:55:27.816Z,9.82
2019-05-03T01:56:28.200Z,9.82
2019-05-03T01:57:28.736Z,9.82
2019-05-03T01:58:29.399Z,9.82
2019-05-03T01:59:28.428Z,9.82
2019-05-03T02:00:31.792Z,9.82
2019-05-03T02:01:31.482Z,9.81
2019-05-03T02:02:29.898Z,9.81
2019-05-03T02:03:32.521Z,9.80
2019-05-03T02:04:32.252Z,9.80
2019-05-03T02:05:32.022Z,9.79
2019-05-03T02:06:32.017Z,9.79
2019-05-03T02:07:33.395Z,9.79
2019-05-03T02:08:34.099Z,9.78
2019-05-03T02:09:34.619Z,9.78
2019-05-03T02:10:35.116Z,9.78
2019-05-03T02:11:35.642Z,9.77
2019-05-03T02:12:36.109Z,9.77
2019-05-03T02:13:36.867Z,9.77
2019-05-03T02:14:37.272Z,9.76
2019-05-03T02:15:37.610Z,9.76
2019-05-03T02:15:46.173Z,9.65
2019-05-03T02:16:47.726Z,9.65
2019-05-03T02:17:48.555Z,9.65
2019-05-03T02:18:49.097Z,9.65
2019-05-03T02:19:49.630Z,9.65
2019-05-03T02:20:50.148Z,9.65
2019-05-03T02:21:52.217Z,9.65
2019-05-03T02:22:49.768Z,9.65
2019-05-03T02:23:52.114Z,9.65
2019-05-03T02:24:52.521Z,9.65
2019-05-03T02:25:58.351Z,9.65
2019-05-03T02:26:52.969Z,9.65
2019-05-03T02:27:52.764Z,9.66
2019-05-03T02:28:52.908Z,9.67
2019-05-03T02:29:54.521Z,9.67
2019-05-03T02:30:54.892Z,9.68
2019-05-03T02:31:55.514Z,9.68
2019-05-03T02:32:55.941Z,9.69
2019-05-03T02:33:56.621Z,9.69
2019-05-03T02:34:57.165Z,9.70
2019-05-03T02:35:57.737Z,9.70
2019-05-03T02:36:58.017Z,9.70
2019-05-03T02:37:58.116Z,9.70
2019-05-03T02:38:58.545Z,9.70
2019-05-03T02:39:58.899Z,9.70
2019-05-03T02:40:59.362Z,9.70
2019-05-03T02:42:07.927Z,9.70
2019-05-03T02:42:59.770Z,9.70
2019-05-03T02:44:01.134Z,9.69
2019-05-03T02:45:01.490Z,9.69
2019-05-03T02:46:01.906Z,9.69
2019-05-03T02:47:02.293Z,9.70
2019-05-03T02:48:02.810Z,9.70
2019-05-03T02:49:06.162Z,9.70
2019-05-03T02:50:02.517Z,9.71
2019-05-03T02:51:06.333Z,9.71
2019-05-03T02:52:06.366Z,9.72
2019-05-03T02:53:05.775Z,9.72
2019-05-03T02:54:05.566Z,9.72
2019-05-03T02:55:06.100Z,9.73
2019-05-03T02:56:15.229Z,9.74
2019-05-03T02:57:06.335Z,9.74
2019-05-03T02:58:05.939Z,9.75
2019-05-03T02:59:06.507Z,9.76
2019-05-03T03:00:06.514Z,9.77
2019-05-03T03:01:07.986Z,9.77
2019-05-03T03:02:08.288Z,9.78
2019-05-03T03:03:08.762Z,9.79
2019-05-03T03:04:09.595Z,9.79
2019-05-03T03:05:10.029Z,9.80
2019-05-03T03:06:11.809Z,9.81
2019-05-03T03:07:11.458Z,9.81
2019-05-03T03:08:12.077Z,9.82
2019-05-03T03:09:12.816Z,9.83
2019-05-03T03:10:16.027Z,9.83
2019-05-03T03:11:15.411Z,9.84
2019-05-03T03:12:15.273Z,9.84
2019-05-03T03:13:16.342Z,9.85
2019-05-03T03:14:16.765Z,9.85
2019-05-03T03:15:16.224Z,9.85
2019-05-03T03:16:18.687Z,9.85
2019-05-03T03:17:16.251Z,9.85
2019-05-03T03:17:25.506Z,9.86
2019-05-03T03:18:25.666Z,9.86
2019-05-03T03:19:26.278Z,9.86
2019-05-03T03:20:26.146Z,9.86
2019-05-03T03:21:27.907Z,9.86
2019-05-03T03:22:28.341Z,9.86
2019-05-03T03:23:28.844Z,9.86
2019-05-03T03:24:29.244Z,9.87
2019-05-03T03:25:29.715Z,9.87
2019-05-03T03:26:37.376Z,9.87
2019-05-03T03:27:29.368Z,9.87
2019-05-03T03:28:30.750Z,9.87
2019-05-03T03:29:31.115Z,9.88
2019-05-03T03:30:31.464Z,9.88
2019-05-03T03:31:31.827Z,9.89
2019-05-03T03:32:32.145Z,9.90
2019-05-03T03:33:32.674Z,9.90
2019-05-03T03:34:38.066Z,9.91
2019-05-03T03:35:32.293Z,9.91
2019-05-03T03:36:50.333Z,9.92
2019-05-03T03:37:35.215Z,9.93
2019-05-03T03:38:35.283Z,9.94
2019-05-03T03:39:36.089Z,9.95
2019-05-03T03:40:35.847Z,9.95
2019-05-03T03:41:35.343Z,9.96
2019-05-03T03:42:35.988Z,9.96
2019-05-03T03:43:35.611Z,9.96
2019-05-03T03:44:36.526Z,9.97
2019-05-03T03:45:36.175Z,9.97
2019-05-03T03:46:37.675Z,9.97
2019-05-03T03:47:38.353Z,9.98
2019-05-03T03:48:38.854Z,9.98
2019-05-03T03:49:39.580Z,9.97
2019-05-03T03:50:40.139Z,9.97
2019-05-03T03:51:40.786Z,9.96
2019-05-03T03:52:41.379Z,9.96
2019-05-03T03:53:42.099Z,9.96
2019-05-03T03:54:42.656Z,9.96
2019-05-03T03:55:45.871Z,9.95
2019-05-03T03:56:56.156Z,9.95
2019-05-03T03:57:46.531Z,9.94
2019-05-03T03:58:46.449Z,9.93
2019-05-03T03:59:45.423Z,9.92
2019-05-03T04:00:46.488Z,9.91
2019-05-03T04:01:45.843Z,9.91
2019-05-03T04:02:46.113Z,9.90
2019-05-03T04:03:46.567Z,9.89
2019-05-03T04:04:50.812Z,9.88
2019-05-03T04:05:47.888Z,9.87
2019-05-03T04:06:49.730Z,9.86
2019-05-03T04:07:50.289Z,9.85
2019-05-03T04:08:50.985Z,9.84
2019-05-03T04:09:50.512Z,9.84
2019-05-03T04:10:52.037Z,9.83
2019-05-03T04:11:52.645Z,9.82
2019-05-03T04:12:55.688Z,9.82
2019-05-03T04:13:52.401Z,9.81
2019-05-03T04:14:56.236Z,9.81
2019-05-03T04:15:55.932Z,9.80
2019-05-03T04:16:56.173Z,9.80
2019-05-03T04:17:56.440Z,9.80
2019-05-03T04:18:55.146Z,9.80
2019-05-03T04:19:55.945Z,9.81
2019-05-03T04:20:55.927Z,9.81
2019-05-03T04:21:56.136Z,9.80
2019-05-03T04:22:56.247Z,9.80
2019-05-03T04:23:56.430Z,9.80
2019-05-03T04:24:57.783Z,9.80
2019-05-03T04:25:58.461Z,9.80
2019-05-03T04:27:13.740Z,9.80
2019-05-03T04:27:58.467Z,9.79
2019-05-03T04:28:07.012Z,9.75
2019-05-03T04:29:07.358Z,9.75
2019-05-03T04:30:08.759Z,9.75
2019-05-03T04:31:09.116Z,9.75
2019-05-03T04:32:09.508Z,9.75
2019-05-03T04:33:10.042Z,9.75
2019-05-03T04:34:09.429Z,9.75
2019-05-03T04:35:10.820Z,9.75
2019-05-03T04:36:11.221Z,9.75
2019-05-03T04:37:11.583Z,9.75
2019-05-03T04:38:11.998Z,9.74
2019-05-03T04:39:17.068Z,9.74
2019-05-03T04:40:11.888Z,9.74
2019-05-03T04:41:15.751Z,9.73
2019-05-03T04:42:16.137Z,9.73
2019-05-03T04:43:15.904Z,9.73
2019-05-03T04:44:15.505Z,9.73
2019-05-03T04:45:16.509Z,9.73
2019-05-03T04:46:16.370Z,9.73
2019-05-03T04:47:15.832Z,9.73
2019-05-03T04:48:16.295Z,9.73
2019-05-03T04:49:16.494Z,9.73
2019-05-03T04:50:17.831Z,9.74
2019-05-03T04:51:18.129Z,9.74
2019-05-03T04:52:18.420Z,9.74
2019-05-03T04:53:18.728Z,9.75
2019-05-03T04:54:19.094Z,9.75
2019-05-03T04:55:19.527Z,9.75
2019-05-03T04:56:19.969Z,9.75
2019-05-03T04:57:35.129Z,9.75
2019-05-03T04:58:20.093Z,9.76
2019-05-03T04:59:25.280Z,9.76
2019-05-03T05:00:20.940Z,9.76
2019-05-03T05:01:22.268Z,9.77
2019-05-03T05:02:22.796Z,9.77
2019-05-03T05:03:23.163Z,9.77
2019-05-03T05:04:25.427Z,9.77
2019-05-03T05:05:25.736Z,9.78
2019-05-03T05:06:25.575Z,9.78
2019-05-03T05:07:26.179Z,9.78
2019-05-03T05:08:25.332Z,9.79
2019-05-03T05:09:25.835Z,9.79
2019-05-03T05:10:26.145Z,9.80
2019-05-03T05:11:26.283Z,9.81
2019-05-03T05:12:26.486Z,9.81
2019-05-03T05:13:27.892Z,9.82
2019-05-03T05:14:28.227Z,9.83
2019-05-03T05:15:28.691Z,9.83
2019-05-03T05:16:29.408Z,9.84
2019-05-03T05:17:28.865Z,9.84
2019-05-03T05:18:30.354Z,9.84
2019-05-03T05:19:30.696Z,9.85
2019-05-03T05:20:31.400Z,9.85
2019-05-03T05:21:31.735Z,9.86
2019-05-03T05:22:32.593Z,9.87
2019-05-03T05:23:32.072Z,9.87
2019-05-03T05:24:34.639Z,9.88
2019-05-03T05:25:32.969Z,9.89
2019-05-03T05:26:35.277Z,9.89
2019-05-03T05:27:34.657Z,9.89
2019-05-03T05:28:35.469Z,9.89
2019-05-03T05:29:34.658Z,9.89
2019-05-03T05:30:35.320Z,9.89
2019-05-03T05:31:35.631Z,9.88
2019-05-03T05:32:35.729Z,9.88
2019-05-03T05:33:37.116Z,9.88
2019-05-03T05:34:37.494Z,9.87
2019-05-03T05:34:46.166Z,9.85
2019-05-03T05:35:46.503Z,9.85
2019-05-03T05:36:48.044Z,9.85
2019-05-03T05:37:48.422Z,9.85
2019-05-03T05:38:49.123Z,9.85
2019-05-03T05:39:49.479Z,9.85
2019-05-03T05:40:49.964Z,9.84
2019-05-03T05:41:50.604Z,9.84
2019-05-03T05:42:50.968Z,9.84
2019-05-03T05:43:51.395Z,9.84
2019-05-03T05:44:51.881Z,9.84
2019-05-03T05:45:52.218Z,9.85
2019-05-03T05:46:54.291Z,9.84
2019-05-03T05:47:52.062Z,9.84
2019-05-03T05:48:55.378Z,9.83
2019-05-03T05:49:54.617Z,9.83
2019-05-03T05:50:55.193Z,9.84
2019-05-03T05:51:54.615Z,9.84
2019-05-03T05:52:55.268Z,9.85
2019-05-03T05:53:55.542Z,9.85
2019-05-03T05:54:56.932Z,9.85
2019-05-03T05:55:57.406Z,9.86
2019-05-03T05:56:57.917Z,9.86
2019-05-03T05:58:04.696Z,9.87
2019-05-03T05:58:57.947Z,9.88
2019-05-03T05:59:59.310Z,9.89
2019-05-03T06:00:59.816Z,9.91
2019-05-03T06:02:00.213Z,9.92
2019-05-03T06:03:00.687Z,9.94
2019-05-03T06:04:01.115Z,9.96
2019-05-03T06:05:01.518Z,9.97
2019-05-03T06:06:01.856Z,9.99
2019-05-03T06:07:04.490Z,10.00
2019-05-03T06:08:02.254Z,10.02
2019-05-03T06:09:05.130Z,10.04
2019-05-03T06:10:05.248Z,10.07
2019-05-03T06:11:04.568Z,10.10
2019-05-03T06:12:04.739Z,10.13
2019-05-03T06:13:06.095Z,10.16
2019-05-03T06:14:06.414Z,10.20
2019-05-03T06:15:06.944Z,10.25
2019-05-03T06:16:07.558Z,10.30
2019-05-03T06:17:08.181Z,10.35
2019-05-03T06:18:08.722Z,10.42
2019-05-03T06:19:09.092Z,10.48
2019-05-03T06:20:09.590Z,10.55
2019-05-03T06:21:09.944Z,10.61
2019-05-03T06:22:10.329Z,10.67
2019-05-03T06:23:10.675Z,10.73
2019-05-03T06:24:11.066Z,10.80
2019-05-03T06:25:11.400Z,10.86
2019-05-03T06:26:11.868Z,10.92
2019-05-03T06:27:12.233Z,10.97
2019-05-03T06:28:18.348Z,11.02
2019-05-03T06:28:21.168Z,11.65
2019-05-03T06:29:21.829Z,11.65
2019-05-03T06:30:24.858Z,11.65
2019-05-03T06:31:22.874Z,11.65
2019-05-03T06:32:25.249Z,11.66
2019-05-03T06:33:24.474Z,11.69
2019-05-03T06:34:25.180Z,11.71
2019-05-03T06:35:24.752Z,11.72
2019-05-03T06:36:26.137Z,11.74
2019-05-03T06:37:26.629Z,11.76
2019-05-03T06:38:26.964Z,11.79
2019-05-03T06:39:27.382Z,11.82
2019-05-03T06:40:27.699Z,11.84
2019-05-03T06:41:28.096Z,11.86
2019-05-03T06:42:28.575Z,11.88
2019-05-03T06:43:28.864Z,11.90
2019-05-03T06:44:29.155Z,11.95
2019-05-03T06:45:29.556Z,11.98
2019-05-03T06:46:30.358Z,12.01
2019-05-03T06:47:29.390Z,12.03
2019-05-03T06:48:32.043Z,12.04
2019-05-03T06:49:30.032Z,12.09
2019-05-03T06:50:31.367Z,12.14
2019-05-03T06:51:31.784Z,12.18
2019-05-03T06:52:32.133Z,12.23
2019-05-03T06:53:34.393Z,12.26
2019-05-03T06:54:31.858Z,12.28
2019-05-03T06:55:35.108Z,12.29
2019-05-03T06:56:32.678Z,12.30
2019-05-03T06:57:35.392Z,12.30
2019-05-03T06:58:36.194Z,12.30
2019-05-03T06:59:35.828Z,12.29
2019-05-03T07:00:35.071Z,12.27
2019-05-03T07:01:34.779Z,12.25
2019-05-03T07:02:36.152Z,12.22
2019-05-03T07:03:36.641Z,12.18
2019-05-03T07:04:36.986Z,12.16
2019-05-03T07:05:38.757Z,12.13
2019-05-03T07:06:40.645Z,12.10
2019-05-03T07:07:37.376Z,12.06
2019-05-03T07:08:38.869Z,12.02
2019-05-03T07:09:39.475Z,11.98
2019-05-03T07:10:40.087Z,11.94
2019-05-03T07:11:39.592Z,11.90
2019-05-03T07:12:40.976Z,11.87
2019-05-03T07:13:41.510Z,11.84
2019-05-03T07:14:41.912Z,11.82
2019-05-03T07:15:42.412Z,11.80
2019-05-03T07:16:44.377Z,11.78
2019-05-03T07:17:42.181Z,11.77
2019-05-03T07:18:45.450Z,11.75
2019-05-03T07:19:42.989Z,11.73
2019-05-03T07:20:44.739Z,11.72
2019-05-03T07:21:45.278Z,11.70
2019-05-03T07:22:45.694Z,11.69
2019-05-03T07:23:46.056Z,11.68
2019-05-03T07:24:46.827Z,11.67
2019-05-03T07:25:47.133Z,11.66
2019-05-03T07:25:55.654Z,11.32
2019-05-03T07:26:59.101Z,11.32
2019-05-03T07:27:56.894Z,11.32
2019-05-03T07:28:58.350Z,11.32
2019-05-03T07:29:58.972Z,11.32
2019-05-03T07:30:59.365Z,11.30
2019-05-03T07:31:59.729Z,11.29
2019-05-03T07:33:00.320Z,11.28
2019-05-03T07:34:00.895Z,11.28
2019-05-03T07:35:01.396Z,11.32
2019-05-03T07:36:01.792Z,11.38
2019-05-03T07:37:02.458Z,11.46
2019-05-03T07:38:02.945Z,11.53
2019-05-03T07:39:03.244Z,11.62
2019-05-03T07:40:04.748Z,11.73
2019-05-03T07:41:05.091Z,11.83
2019-05-03T07:42:05.404Z,11.93
2019-05-03T07:43:04.513Z,12.02
2019-05-03T07:44:05.342Z,12.12
2019-05-03T07:45:05.035Z,12.23
2019-05-03T07:46:05.605Z,12.35
2019-05-03T07:47:05.449Z,12.44
2019-05-03T07:48:06.793Z,12.54
2019-05-03T07:49:07.122Z,12.65
2019-05-03T07:50:07.519Z,12.76
2019-05-03T07:51:07.846Z,12.88
2019-05-03T07:52:08.214Z,13.00
2019-05-03T07:53:08.469Z,13.10
2019-05-03T07:54:08.825Z,13.23
2019-05-03T07:55:09.276Z,13.39
2019-05-03T07:56:09.617Z,13.53
2019-05-03T07:57:10.067Z,13.65
2019-05-03T07:58:10.700Z,13.75
2019-05-03T07:59:10.993Z,13.84
2019-05-03T08:00:11.451Z,13.91
2019-05-03T08:01:11.488Z,13.97
2019-05-03T08:02:10.877Z,14.01
2019-05-03T08:03:12.351Z,14.05
2019-05-03T08:04:12.790Z,14.08
2019-05-03T08:05:15.428Z,14.10
2019-05-03T08:06:14.786Z,14.11
2019-05-03T08:07:20.629Z,14.12
2019-05-03T08:08:14.954Z,14.12
2019-05-03T08:09:15.340Z,14.11
2019-05-03T08:10:15.314Z,14.10
2019-05-03T08:11:14.851Z,14.07
2019-05-03T08:12:16.222Z,14.05
2019-05-03T08:13:16.578Z,14.01
2019-05-03T08:14:18.248Z,13.96
2019-05-03T08:15:16.246Z,13.91
2019-05-03T08:16:17.598Z,13.85
2019-05-03T08:17:18.025Z,13.79
2019-05-03T08:18:18.582Z,13.74
2019-05-03T08:19:17.927Z,13.68
2019-05-03T08:20:19.326Z,13.62
2019-05-03T08:21:19.742Z,13.56
2019-05-03T08:22:20.120Z,13.51
2019-05-03T08:22:28.669Z,12.46
2019-05-03T08:23:30.588Z,12.46
2019-05-03T08:24:29.705Z,12.46
2019-05-03T08:25:31.238Z,12.47
2019-05-03T08:26:31.850Z,12.47
2019-05-03T08:27:32.524Z,12.48
2019-05-03T08:28:34.660Z,12.48
2019-05-03T08:29:32.301Z,12.49
2019-05-03T08:30:35.446Z,12.50
2019-05-03T08:31:35.271Z,12.51
2019-05-03T08:32:35.304Z,12.53
2019-05-03T08:33:35.516Z,12.55
2019-05-03T08:34:34.858Z,12.57
2019-05-03T08:35:35.594Z,12.59
2019-05-03T08:36:35.525Z,12.60
2019-05-03T08:37:36.885Z,12.61
2019-05-03T08:38:37.289Z,12.60
2019-05-03T08:39:37.659Z,12.58
2019-05-03T08:40:37.996Z,12.56
2019-05-03T08:41:38.529Z,12.53
2019-05-03T08:42:38.969Z,12.49
2019-05-03T08:43:39.565Z,12.45
2019-05-03T08:44:40.051Z,12.43
2019-05-03T08:45:40.693Z,12.42
2019-05-03T08:46:41.393Z,12.41
2019-05-03T08:47:41.783Z,12.41
2019-05-03T08:48:42.362Z,12.40
2019-05-03T08:49:44.884Z,12.38
2019-05-03T08:50:42.376Z,12.37
2019-05-03T08:51:44.370Z,12.37
2019-05-03T08:52:45.193Z,12.38
2019-05-03T08:53:45.924Z,12.38
2019-05-03T08:54:44.912Z,12.40
2019-05-03T08:55:45.038Z,12.42
2019-05-03T08:56:45.211Z,12.42
2019-05-03T08:57:45.747Z,12.43
2019-05-03T08:58:47.123Z,12.44
2019-05-03T08:59:47.641Z,12.45
2019-05-03T09:00:48.069Z,12.47
2019-05-03T09:01:48.782Z,12.46
2019-05-03T09:02:49.498Z,12.48
2019-05-03T09:03:49.876Z,12.48
2019-05-03T09:04:50.332Z,12.49
2019-05-03T09:05:49.912Z,12.48
2019-05-03T09:06:50.304Z,12.47
2019-05-03T09:07:51.808Z,12.46
2019-05-03T09:08:54.966Z,12.48
2019-05-03T09:09:51.868Z,12.50
2019-05-03T09:10:54.529Z,12.53
2019-05-03T09:11:53.071Z,12.56
2019-05-03T09:12:55.492Z,12.58
2019-05-03T09:13:55.767Z,12.60
2019-05-03T09:14:54.850Z,12.61
2019-05-03T09:15:55.522Z,12.64
2019-05-03T09:16:55.787Z,12.68
2019-05-03T09:17:57.370Z,12.72
2019-05-03T09:18:56.979Z,12.75
2019-05-03T09:19:58.941Z,12.77
2019-05-03T09:20:59.689Z,12.80
2019-05-03T09:22:00.085Z,12.82
2019-05-03T09:23:00.608Z,12.83
2019-05-03T09:24:01.306Z,12.84
2019-05-03T09:25:02.267Z,12.84
2019-05-03T09:25:10.810Z,12.79
2019-05-03T09:26:12.520Z,12.79
2019-05-03T09:27:14.851Z,12.77
2019-05-03T09:28:12.570Z,12.76
2019-05-03T09:29:14.824Z,12.74
2019-05-03T09:30:14.520Z,12.73
2019-05-03T09:31:15.512Z,12.71
2019-05-03T09:32:14.839Z,12.69
2019-05-03T09:33:15.451Z,12.67
2019-05-03T09:34:15.640Z,12.64
2019-05-03T09:35:29.543Z,12.62
2019-05-03T09:36:17.077Z,12.59
2019-05-03T09:37:18.662Z,12.57
2019-05-03T09:38:19.160Z,12.55
2019-05-03T09:39:19.838Z,12.53
2019-05-03T09:40:20.430Z,12.52
2019-05-03T09:41:21.039Z,12.52
2019-05-03T09:42:21.583Z,12.53
2019-05-03T09:43:22.068Z,12.56
2019-05-03T09:44:24.335Z,12.61
2019-05-03T09:45:22.026Z,12.66
2019-05-03T09:46:26.143Z,12.71
2019-05-03T09:47:25.065Z,12.77
2019-05-03T09:48:25.478Z,12.83
2019-05-03T09:49:25.355Z,12.90
2019-05-03T09:50:24.717Z,12.96
2019-05-03T09:51:25.538Z,13.03
2019-05-03T09:52:25.439Z,13.09
2019-05-03T09:53:28.316Z,13.15
2019-05-03T09:54:27.891Z,13.21
2019-05-03T09:55:28.536Z,13.24
2019-05-03T09:56:29.117Z,13.27
2019-05-03T09:57:28.767Z,13.30
2019-05-03T09:58:30.204Z,13.32
2019-05-03T09:59:30.368Z,13.32
2019-05-03T10:00:30.888Z,13.32
2019-05-03T10:01:31.514Z,13.31
2019-05-03T10:02:32.071Z,13.29
2019-05-03T10:03:32.584Z,13.27
2019-05-03T10:04:33.133Z,13.25
2019-05-03T10:05:35.129Z,13.23
2019-05-03T10:06:33.116Z,13.20
2019-05-03T10:07:35.129Z,13.17
2019-05-03T10:08:35.823Z,13.14
2019-05-03T10:09:35.485Z,13.10
2019-05-03T10:10:35.754Z,13.06
2019-05-03T10:11:36.068Z,13.02
2019-05-03T10:12:37.904Z,12.99
2019-05-03T10:13:41.640Z,12.96
2019-05-03T10:14:38.148Z,12.92
2019-05-03T10:15:39.556Z,12.88
2019-05-03T10:16:40.119Z,12.84
2019-05-03T10:17:40.597Z,12.81
2019-05-03T10:18:41.491Z,12.78
2019-05-03T10:19:42.118Z,12.75
2019-05-03T10:20:44.668Z,12.72
2019-05-03T10:21:42.216Z,12.69
2019-05-03T10:22:44.193Z,12.66
2019-05-03T10:23:45.399Z,12.64
2019-05-03T10:24:45.248Z,12.62
2019-05-03T10:25:45.530Z,12.59
2019-05-03T10:26:45.609Z,12.58
2019-05-03T10:27:45.975Z,12.57
2019-05-03T10:28:46.720Z,12.56
2019-05-03T10:29:47.177Z,12.56
2019-05-03T10:30:48.058Z,12.56
2019-05-03T10:30:57.543Z,12.76
2019-05-03T10:31:58.929Z,12.76
2019-05-03T10:32:59.467Z,12.76
2019-05-03T10:33:59.995Z,12.75
2019-05-03T10:35:00.398Z,12.74
2019-05-03T10:36:00.774Z,12.74
2019-05-03T10:37:01.336Z,12.73
2019-05-03T10:38:01.710Z,12.72
2019-05-03T10:39:02.184Z,12.70
2019-05-03T10:40:07.230Z,12.69
2019-05-03T10:41:02.152Z,12.69
2019-05-03T10:42:04.784Z,12.69
2019-05-03T10:43:04.803Z,12.69
2019-05-03T10:44:05.899Z,12.70
2019-05-03T10:45:04.654Z,12.70
2019-05-03T10:46:05.179Z,12.72
2019-05-03T10:47:05.611Z,12.74
2019-05-03T10:48:05.566Z,12.77
2019-05-03T10:49:06.044Z,12.81
2019-05-03T10:50:07.549Z,12.83
2019-05-03T10:51:08.055Z,12.85
2019-05-03T10:52:08.531Z,12.87
2019-05-03T10:53:09.153Z,12.89
2019-05-03T10:54:09.609Z,12.92
2019-05-03T10:55:10.055Z,12.94
2019-05-03T10:56:13.323Z,12.94
2019-05-03T10:57:10.094Z,12.93
2019-05-03T10:58:11.614Z,12.93
2019-05-03T10:59:12.114Z,12.93
2019-05-03T11:00:39.320Z,12.93
2019-05-03T11:01:12.041Z,12.94
2019-05-03T11:02:13.508Z,12.95
2019-05-03T11:03:14.021Z,12.95
2019-05-03T11:04:14.878Z,12.96
2019-05-03T11:05:14.633Z,12.96
2019-05-03T11:06:14.830Z,12.97
2019-05-03T11:07:15.176Z,12.97
2019-05-03T11:08:16.631Z,12.97
2019-05-03T11:09:17.204Z,12.97
2019-05-03T11:10:17.681Z,12.98
2019-05-03T11:11:18.297Z,12.98
2019-05-03T11:12:18.668Z,12.99
2019-05-03T11:13:19.030Z,12.99
2019-05-03T11:14:19.582Z,12.99
2019-05-03T11:15:20.269Z,13.00
2019-05-03T11:16:20.755Z,13.01
2019-05-03T11:17:21.285Z,13.03
2019-05-03T11:18:21.681Z,13.04
2019-05-03T11:19:22.181Z,13.07
2019-05-03T11:20:29.230Z,13.10
2019-05-03T11:21:30.346Z,13.14
2019-05-03T11:22:22.766Z,13.19
2019-05-03T11:23:25.164Z,13.25
2019-05-03T11:24:27.186Z,13.32
2019-05-03T11:25:24.970Z,13.38
2019-05-03T11:26:25.363Z,13.46
2019-05-03T11:27:25.556Z,13.50
2019-05-03T11:28:27.105Z,13.54
2019-05-03T11:28:35.636Z,14.63
2019-05-03T11:29:37.126Z,14.63
2019-05-03T11:30:37.638Z,14.64
2019-05-03T11:31:38.131Z,14.65
2019-05-03T11:32:38.688Z,14.68
2019-05-03T11:33:39.288Z,14.70
2019-05-03T11:34:39.690Z,14.72
2019-05-03T11:35:39.739Z,14.75
2019-05-03T11:36:40.216Z,14.77
2019-05-03T11:37:40.672Z,14.78
2019-05-03T11:38:41.207Z,14.80
2019-05-03T11:39:41.692Z,14.81
2019-05-03T11:40:42.240Z,14.80
2019-05-03T11:41:44.961Z,14.80
2019-05-03T11:42:44.616Z,14.78
2019-05-03T11:43:44.383Z,14.78
2019-05-03T11:44:44.668Z,14.76
2019-05-03T11:45:44.840Z,14.76
2019-05-03T11:46:44.562Z,14.77
2019-05-03T11:47:46.162Z,14.77
2019-05-03T11:48:46.759Z,14.77
2019-05-03T11:49:47.203Z,14.75
2019-05-03T11:50:47.955Z,14.74
2019-05-03T11:51:48.523Z,14.74
2019-05-03T11:52:48.869Z,14.75
2019-05-03T11:53:49.380Z,14.76
2019-05-03T11:54:49.965Z,14.77
2019-05-03T11:55:50.309Z,14.78
2019-05-03T11:56:51.063Z,14.80
2019-05-03T11:57:50.523Z,14.81
2019-05-03T11:58:52.055Z,14.82
2019-05-03T11:59:54.653Z,14.85
2019-05-03T12:01:08.196Z,14.89
2019-05-03T12:01:52.693Z,14.94
2019-05-03T12:02:55.569Z,14.98
2019-05-03T12:03:55.509Z,15.01
2019-05-03T12:04:55.215Z,15.04
2019-05-03T12:05:55.242Z,15.06
2019-05-03T12:06:55.087Z,15.07
2019-05-03T12:07:55.374Z,15.08
2019-05-03T12:08:56.916Z,15.08
2019-05-03T12:09:57.785Z,15.08
2019-05-03T12:11:01.132Z,15.07
2019-05-03T12:11:57.741Z,15.04
2019-05-03T12:12:59.063Z,15.01
2019-05-03T12:14:04.099Z,14.99
2019-05-03T12:14:59.050Z,14.97
2019-05-03T12:16:00.971Z,14.94
2019-05-03T12:17:17.257Z,14.90
2019-05-03T12:18:00.999Z,14.87
2019-05-03T12:19:15.635Z,14.85
2019-05-03T12:20:02.462Z,14.82
2019-05-03T12:21:02.831Z,14.80
2019-05-03T12:22:02.708Z,14.78
2019-05-03T12:23:05.544Z,14.76
2019-05-03T12:24:06.050Z,14.74
2019-05-03T12:25:09.915Z,14.73
2019-05-03T12:26:09.740Z,14.72
2019-05-03T12:27:04.823Z,14.72
2019-05-03T12:28:05.896Z,14.72
2019-05-03T12:29:05.668Z,14.73
2019-05-03T12:30:07.187Z,14.75
2019-05-03T12:31:07.569Z,14.76
2019-05-03T12:32:07.923Z,14.76
2019-05-03T12:33:08.346Z,14.78
2019-05-03T12:34:08.745Z,14.81
2019-05-03T12:34:17.303Z,15.18
2019-05-03T12:35:17.729Z,15.17
2019-05-03T12:36:19.229Z,15.16
2019-05-03T12:37:19.505Z,15.16
2019-05-03T12:38:19.896Z,15.18
2019-05-03T12:39:26.275Z,15.19
2019-05-03T12:40:19.779Z,15.21
2019-05-03T12:41:21.140Z,15.24
2019-05-03T12:42:21.521Z,15.24
2019-05-03T12:43:21.961Z,15.26
2019-05-03T12:44:24.338Z,15.28
2019-05-03T12:45:21.625Z,15.30
2019-05-03T12:46:23.008Z,15.33
2019-05-03T12:47:25.151Z,15.36
2019-05-03T12:48:24.639Z,15.37
2019-05-03T12:49:24.940Z,15.38
2019-05-03T12:50:25.190Z,15.38
2019-05-03T12:51:25.187Z,15.38
2019-05-03T12:52:26.798Z,15.36
2019-05-03T12:53:25.505Z,15.34
2019-05-03T12:54:27.187Z,15.32
2019-05-03T12:55:27.615Z,15.31
2019-05-03T12:56:32.576Z,15.29
2019-05-03T12:57:27.371Z,15.27